Pagina principale
METAR-TAF:

METAR-TAF

Aeroporti :

Aeroporto di Sármellék

Hévíz, Ungheria

latitudine: 46-41-11N, longitudine: 017-09-33E, altezza: 124 m

Osservazione

Il bollettino è stato emesso 37 minuti fa, alle 05:15 UTC
Vento 3 kt da nord-ovest
Temperature -2°C
Umidità 100%
Pressione 1028 hPa
Visibilità 10 km o più
Poco nuvoloso ad un'altezza di 700 ft
Nuvoloso ad un'altezza di 20000 ft

METAR: LHSM 210515Z 32003KT 9999 FEW007 BKN200 M02/M02 Q1028

Ora: 06:52 (05:52 UTC)

Previsione

Il bollettino è stato emesso 37 minuti fa, alle 05:15 UTC
Previsione valida dal 21 alle 06 UTC al 21 alle 15 UTC
Vento 4 kt da nord-ovest
Visibilità 10 km o più
nessuna nube inferiore a 1500 m e nessun cumulonembo
Probabilità 30%
dal 21 alle 06 UTC al 21 alle 09 UTC
Visibilità: 5000 m
foschia
Evoluzione graduale
dal 21 alle 09 UTC al 21 alle 12 UTC
Vento 6 kt da ovest/sud-ovest

TAF: LHSM 210515Z 2106/2115 31004KT CAVOK PROB30 2106/2109 5000 BR BECMG 2109/2112 25006KT

Osservazioni e previsioni meteorologiche di più di 4000 aeroporti (messaggi METAR e TAF).

Le stazioni disponibili sono rappresentate dai dischi gialli e rossi sulla carta.

Puntare il mouse per vedere il nome della stazione.

Clicca sopra per visualizzare le osservazioni e previsioni meteorologiche.

Per cambiare la mappa : fare clic sui pulsanti verdi con una croce nera per ingrandire, il pulsante verde con un trattino per diminuire, o sulla freccia verde per le mappe adiacenti.


METAR-TAF: